Allenwood, New York
Current Conditions -  °F | °C
As of 6:51 PM on Monday 20 Oct 2014 (Local Time) from KLGA Reporting Station
Broken Clouds Broken Clouds  
Wind Chill: 59°   Ceiling: 25000
Heat Index: 59°   Visibility: 10mi
Dew Point: 37°   Wind: 8mph
Humidity: 44%   Direction: 210°SSW
Pressure: 29.97"   Gusts: NA
Location:  40.786°N, 73.7291°W
Report Text: KLGA 202251Z 21007KT 10SM FEW150 BKN250 15/03 A2997 RMK AO2 SLP149 T01500028
Loading
Personal Weather Stations






























Interactive Weather Map New forecast layout! Learn more

10-Day Weather Forecast

Advertisements
Track Severe Weather on mobile